UPSVAC Airport Information Service

Hong Kong International Airport (ZHUB)

ICAO: VHHH Country: Hong Kong
Latitude: 22.3089 Longitude: 113.915
Latest Arrival : UPS1179 (EDDK-VHHH) Latest Departure : UPS513 (VHHH-EDDK)


WX CaptureLIVE
Data provided by noaa.gov | Fetched at 13:42:00

METAR : VHHH 141300Z 09017KT 9999 FEW012 SCT020 24/21 Q1012 WS R07L NOSIG

TAF : VHHH 141100Z 1412/1518 10015KT 9999 FEW015 SCT030 TX26/1506Z TN22/1422Z TEMPO 1421/1503 4000 RA


Runway Data for VHHH
Data provided by openaviationdata.com

Runway ID Mag Var Hdg Length Elevation Surface ILS Freq ILS Id ILS Slope
07L -2 72° 12431 ft 28 ft Asphalt 111.1 IZSL 3
07R -2 72° 12431 ft 28 ft Asphalt 109.3 ISR 3
25L -2 252° 12431 ft 28 ft Asphalt 108.9 IFL 3
25R -2 252° 12431 ft 28 ft Asphalt 110.9 ITFR 3

Hong Kong International Airport (ZHUB), Hong Kong
Use only for reference purposes



Not for navigational purposes.